Time;durP1;ratioP1;P1;durP2;ratioP2;P2;SDS_P1;SDS_P2;PMS_P1;PMS_P2;Temp;Humidity;BMP_temperature;BMP_pressure;BME280_temperature;BME280_humidity;BME280_pressure;Samples;Min_cycle;Max_cycle;Signal;HPM_P1;HPM_P2
2022/05/03 00:00:00;;;;;;;6.15;3.85;;;;;;;12.50;88.40;100341.97;4932727;29;20039;-76
2022/05/03 00:02:38;;;;;;;14.52;4.20;;;;;;;12.54;88.90;100323.06;4932699;29;20505;-75
2022/05/03 00:05:09;;;;;;;9.73;4.20;;;;;;;12.57;88.55;100323.19;4932754;29;20131;-74
2022/05/03 00:08:04;;;;;;;8.50;4.05;;;;;;;12.73;87.72;100334.78;4931664;29;20036;-75
2022/05/03 00:11:07;;;;;;;17.00;5.18;;;;;;;12.73;87.73;100329.59;4932440;29;20040;-75
2022/05/03 00:14:01;;;;;;;26.48;5.95;;;;;;;12.67;89.06;100329.44;4932594;29;20106;-75
2022/05/03 00:16:27;;;;;;;21.75;5.47;;;;;;;12.79;88.52;100323.72;4894777;29;20466;-75
2022/05/03 00:18:52;;;;;;;32.47;7.63;;;;;;;12.86;87.58;100310.09;4951651;28;20047;-75
2022/05/03 00:21:18;;;;;;;11.27;4.53;;;;;;;13.01;87.13;100325.16;4951435;28;20466;-75
2022/05/03 00:23:44;;;;;;;14.93;5.32;;;;;;;13.06;86.48;100315.75;4964760;28;20137;-74
2022/05/03 00:26:10;;;;;;;13.45;4.90;;;;;;;13.11;86.19;100321.94;5010103;28;20038;-74
2022/05/03 00:28:38;;;;;;;11.02;4.13;;;;;;;13.00;85.95;100299.19;5009613;28;20038;-74
2022/05/03 00:31:04;;;;;;;11.93;4.68;;;;;;;12.73;86.60;100285.56;5004367;28;20906;-74
2022/05/03 00:33:33;;;;;;;8.77;4.15;;;;;;;12.89;86.64;100322.25;5008856;28;20038;-75
2022/05/03 00:35:59;;;;;;;5.93;3.73;;;;;;;12.72;86.43;100303.66;5008555;28;20567;-75
2022/05/03 00:38:24;;;;;;;6.13;3.53;;;;;;;12.72;86.19;100317.53;5009457;28;20265;-75
2022/05/03 00:40:58;;;;;;;7.88;4.00;;;;;;;12.34;86.82;100267.31;5009321;28;20119;-76
2022/05/03 00:43:57;;;;;;;7.72;3.90;;;;;;;12.21;87.48;100272.16;5008317;28;20415;-73
2022/05/03 00:46:27;;;;;;;8.05;3.97;;;;;;;12.33;88.34;100320.78;5008140;28;20124;-75
2022/05/03 00:49:04;;;;;;;8.32;4.32;;;;;;;12.26;89.14;100317.16;5009292;28;20030;-76
2022/05/03 00:51:45;;;;;;;8.60;4.78;;;;;;;12.21;90.02;100323.03;5008791;28;20053;-76
2022/05/03 00:54:29;;;;;;;10.02;4.28;;;;;;;12.20;90.27;100322.16;5040521;28;20517;-75
2022/05/03 00:57:00;;;;;;;9.90;4.10;;;;;;;12.06;90.43;100293.31;5050964;28;20021;-76
2022/05/03 01:00:02;;;;;;;21.63;5.40;;;;;;;12.26;90.38;100314.56;5050434;28;20647;-76
2022/05/03 01:02:38;;;;;;;8.10;4.43;;;;;;;12.30;90.36;100315.53;4988949;28;20583;-76
2022/05/03 01:05:10;;;;;;;13.18;5.53;;;;;;;12.36;90.04;100307.94;4989361;28;20515;-75
2022/05/03 01:07:36;;;;;;;10.40;4.65;;;;;;;11.76;90.19;100228.63;4989248;28;20038;-76
2022/05/03 01:10:08;;;;;;;11.18;5.07;;;;;;;12.15;90.29;100282.34;4989154;28;20030;-74
2022/05/03 01:12:54;;;;;;;6.43;4.00;;;;;;;12.36;89.79;100302.78;4988574;28;20058;-76
2022/05/03 01:15:24;;;;;;;6.60;4.38;;;;;;;12.30;89.09;100281.91;4989109;28;20529;-76
2022/05/03 01:18:27;;;;;;;8.05;3.95;;;;;;;12.14;88.73;100258.16;4989073;28;20041;-73
2022/05/03 01:20:58;;;;;;;9.38;5.00;;;;;;;12.46;88.72;100317.69;4911791;29;20407;-76
2022/05/03 01:23:52;;;;;;;8.18;4.70;;;;;;;12.28;88.83;100278.38;4912199;29;20546;-75
2022/05/03 01:26:52;;;;;;;11.27;4.85;;;;;;;12.52;88.58;100311.78;4899431;29;20575;-76
2022/05/03 01:29:24;;;;;;;;;;;;;;;12.68;88.16;100317.38;4912293;29;20032;-76
2022/05/03 01:31:55;;;;;;;8.65;4.22;;;;;;;12.82;87.44;100315.16;4912099;29;20005;-76
2022/05/03 01:34:24;;;;;;;11.43;4.20;;;;;;;12.72;87.21;100289.03;4911740;29;20028;-80
2022/05/03 01:37:10;;;;;;;17.60;5.55;;;;;;;12.95;87.39;100312.03;4912227;29;20135;-77
2022/05/03 01:39:54;;;;;;;10.48;4.22;;;;;;;13.06;87.29;100297.63;4919055;29;20035;-78
2022/05/03 01:42:30;;;;;;;15.27;4.32;;;;;;;13.12;87.55;100304.66;4949147;29;20051;-76
2022/05/03 01:44:56;;;;;;;18.35;4.97;;;;;;;13.17;87.69;100294.41;4948925;29;20410;-74
2022/05/03 01:47:34;;;;;;;16.17;5.25;;;;;;;13.05;87.53;100282.91;4949979;29;20043;-77
2022/05/03 01:50:18;;;;;;;14.07;4.72;;;;;;;13.16;87.90;100297.81;4949752;29;20047;-77
2022/05/03 01:53:05;;;;;;;12.35;4.00;;;;;;;13.18;87.57;100290.97;4931868;29;20118;-76
2022/05/03 01:56:01;;;;;;;11.68;3.80;;;;;;;13.05;87.77;100277.72;4955371;28;20540;-77
2022/05/03 01:58:30;;;;;;;8.57;4.00;;;;;;;13.16;87.60;100290.94;5033292;28;20021;-77
2022/05/03 02:01:07;;;;;;;16.50;4.28;;;;;;;13.15;87.48;100299.56;5048293;28;20037;-75
2022/05/03 02:03:39;;;;;;;16.88;4.35;;;;;;;13.23;87.09;100291.94;5049979;28;20021;-75
2022/05/03 02:06:15;;;;;;;10.20;4.40;;;;;;;13.16;87.38;100290.03;5050030;28;20060;-73
2022/05/03 02:09:05;;;;;;;7.28;3.67;;;;;;;13.08;87.86;100290.75;5049849;28;20100;-73
2022/05/03 02:11:36;;;;;;;9.95;3.80;;;;;;;13.12;87.74;100291.69;5049828;28;20094;-74
2022/05/03 02:16:59;;;;;;;9.55;3.83;;;;;;;13.15;87.53;100289.19;5049645;28;20113;-72
2022/05/03 02:20:04;;;;;;;11.93;4.18;;;;;;;13.17;86.55;100278.84;5049142;28;20032;-74
2022/05/03 02:22:47;;;;;;;8.70;4.10;;;;;;;13.17;86.42;100284.03;5049725;28;20103;-75
2022/05/03 02:25:20;;;;;;;15.73;4.82;;;;;;;13.09;86.19;100278.66;5049634;28;20021;-74
2022/05/03 02:27:52;;;;;;;12.93;5.00;;;;;;;13.22;86.01;100285.00;5031504;28;20033;-73
2022/05/03 02:30:18;;;;;;;11.48;4.20;;;;;;;13.14;85.85;100276.19;5049418;28;20066;-73
2022/05/03 02:33:02;;;;;;;12.32;4.28;;;;;;;13.07;85.62;100289.00;5054145;28;20135;-77
2022/05/03 02:35:33;;;;;;;11.18;4.38;;;;;;;13.02;85.82;100292.31;5054312;28;20567;-77
2022/05/03 02:38:04;;;;;;;9.13;4.20;;;;;;;12.96;86.56;100287.88;5054092;28;20162;-76
2022/05/03 02:40:32;;;;;;;6.60;4.53;;;;;;;12.94;86.94;100294.72;5054679;28;20037;-76
2022/05/03 02:42:58;;;;;;;7.50;4.00;;;;;;;12.93;87.11;100292.97;5054455;28;20029;-76
2022/05/03 02:45:24;;;;;;;9.07;4.05;;;;;;;12.92;87.12;100288.63;5054377;28;20043;-76
2022/05/03 02:48:08;;;;;;;12.52;4.50;;;;;;;12.92;87.48;100294.69;5054456;28;20029;-74
2022/05/03 02:50:45;;;;;;;11.27;3.65;;;;;;;12.67;88.15;100256.06;5054067;28;20162;-76
2022/05/03 02:53:22;;;;;;;11.63;4.70;;;;;;;12.75;88.38;100299.44;5054157;28;20498;-75
2022/05/03 02:56:01;;;;;;;19.35;5.32;;;;;;;12.73;89.44;100295.94;5054087;28;20054;-76
2022/05/03 02:58:45;;;;;;;13.70;4.25;;;;;;;12.81;89.50;100292.66;5053977;28;20498;-76
2022/05/03 03:04:16;;;;;;;9.90;3.70;;;;;;;12.93;90.49;100298.16;5053865;28;20064;-77
2022/05/03 03:06:43;;;;;;;8.30;4.18;;;;;;;12.93;91.89;100283.50;5054139;28;20120;-79
2022/05/03 03:09:14;;;;;;;13.60;4.18;;;;;;;12.74;92.49;100255.38;5053726;28;20486;-79
2022/05/03 03:12:10;;;;;;;8.05;3.55;;;;;;;13.00;93.01;100306.97;5054145;28;20055;-79
2022/05/03 03:14:46;;;;;;;8.57;3.70;;;;;;;12.83;93.95;100272.88;5053878;28;20069;-79
2022/05/03 03:17:19;;;;;;;14.40;4.22;;;;;;;13.03;93.77;100307.91;5053121;28;20072;-79
2022/05/03 03:20:10;;;;;;;17.30;4.70;;;;;;;12.61;93.01;100246.41;5053564;28;20033;-77
2022/05/03 03:22:40;;;;;;;19.80;5.00;;;;;;;12.54;94.76;100301.50;5053640;28;20578;-80
2022/05/03 03:25:08;;;;;;;13.13;4.95;;;;;;;12.55;94.81;100298.94;5052623;28;20041;-80
2022/05/03 03:27:35;;;;;;;19.73;6.13;;;;;;;12.26;95.05;100265.41;5052607;28;20032;-83
2022/05/03 03:30:04;;;;;;;12.25;4.70;;;;;;;12.44;95.80;100308.16;5053195;28;20502;-77
2022/05/03 03:32:30;;;;;;;12.02;4.57;;;;;;;12.03;98.06;100292.34;5053356;28;20033;-81
2022/05/03 03:34:58;;;;;;;7.57;3.90;;;;;;;12.00;97.30;100300.03;5053455;28;20072;-80
2022/05/03 03:37:26;;;;;;;7.53;3.97;;;;;;;12.01;98.00;100310.41;5053368;28;20134;-79
2022/05/03 03:39:51;;;;;;;9.20;4.28;;;;;;;12.09;98.17;100315.81;5053011;28;20040;-80
2022/05/03 03:42:17;;;;;;;12.25;4.05;;;;;;;12.11;98.35;100320.22;5053428;28;20426;-79
2022/05/03 03:44:43;;;;;;;12.00;4.20;;;;;;;12.06;98.73;100301.09;5052523;28;20108;-78
2022/05/03 03:47:09;;;;;;;8.80;4.57;;;;;;;11.90;98.48;100276.47;5053239;28;20040;-81
2022/05/03 03:49:35;;;;;;;8.20;4.30;;;;;;;12.15;98.52;100328.94;5053139;28;20029;-81
2022/05/03 03:52:01;;;;;;;9.98;4.68;;;;;;;11.98;97.99;100298.25;5052839;28;20041;-80
2022/05/03 03:54:27;;;;;;;10.30;4.25;;;;;;;11.82;98.54;100304.69;5052701;28;20047;-79
2022/05/03 03:56:54;;;;;;;10.95;4.68;;;;;;;11.71;100.00;100324.16;5034974;28;20029;-83
2022/05/03 03:59:20;;;;;;;11.20;4.55;;;;;;;11.84;100.00;100317.66;5051544;28;20037;-76
2022/05/03 04:01:48;;;;;;;11.27;4.80;;;;;;;11.86;99.22;100318.56;5052734;28;20037;-77
2022/05/03 04:04:15;;;;;;;10.35;4.60;;;;;;;11.87;100.00;100322.91;5052934;28;20563;-79
2022/05/03 04:06:41;;;;;;;8.98;4.57;;;;;;;11.64;100.00;100310.19;5052174;28;20033;-78
2022/05/03 04:09:06;;;;;;;10.00;4.80;;;;;;;11.81;100.00;100331.38;5052700;28;20087;-78
2022/05/03 04:11:45;;;;;;;8.85;4.55;;;;;;;11.60;100.00;100316.09;5052375;28;20091;-79
2022/05/03 04:14:11;;;;;;;9.63;4.60;;;;;;;11.75;100.00;100325.13;5052495;28;20037;-79
2022/05/03 04:16:37;;;;;;;15.85;4.38;;;;;;;11.82;100.00;100320.22;5052608;28;20036;-78
2022/05/03 04:19:02;;;;;;;8.18;4.30;;;;;;;11.88;100.00;100326.41;5053091;28;20037;-79
2022/05/03 04:21:28;;;;;;;12.75;4.57;;;;;;;11.97;100.00;100326.69;5052736;28;20483;-76
2022/05/03 04:23:53;;;;;;;8.90;4.80;;;;;;;12.07;100.00;100341.63;5052477;28;20498;-76
2022/05/03 04:26:18;;;;;;;11.50;5.07;;;;;;;12.08;100.00;100345.97;5051537;28;20505;-82
2022/05/03 04:28:44;;;;;;;11.43;4.63;;;;;;;12.05;100.00;100334.66;5051112;28;20036;-80
2022/05/03 04:31:09;;;;;;;8.40;4.28;;;;;;;11.71;100.00;100323.31;5045591;28;20474;-81
2022/05/03 04:33:35;;;;;;;9.60;4.05;;;;;;;11.50;100.00;100288.19;5052805;28;20108;-77
2022/05/03 04:36:01;;;;;;;10.02;4.15;;;;;;;11.53;100.00;100308.13;5052515;28;20040;-77
2022/05/03 04:38:27;;;;;;;9.27;4.47;;;;;;;11.62;100.00;100339.41;5052486;28;20376;-77
2022/05/03 04:41:02;;;;;;;8.77;4.28;;;;;;;11.76;100.00;100337.25;5051786;28;20033;-78
2022/05/03 04:43:28;;;;;;;12.13;4.85;;;;;;;11.79;100.00;100325.28;5051754;28;20510;-79
2022/05/03 04:45:54;;;;;;;6.97;3.95;;;;;;;11.76;100.00;100317.44;5047815;28;20121;-78
2022/05/03 04:48:20;;;;;;;7.32;3.88;;;;;;;11.72;100.00;100314.72;5051935;28;20137;-80
2022/05/03 04:50:47;;;;;;;6.90;4.68;;;;;;;11.71;100.00;100307.78;5051047;28;20045;-77
2022/05/03 04:53:13;;;;;;;10.68;4.32;;;;;;;11.61;100.00;100296.28;5051832;28;20112;-76
2022/05/03 04:55:39;;;;;;;6.63;4.22;;;;;;;11.60;100.00;100299.69;5050290;28;20124;-75
2022/05/03 04:58:05;;;;;;;5.43;3.88;;;;;;;11.77;100.00;100344.19;5051761;28;20395;-77
2022/05/03 05:00:31;;;;;;;7.68;5.35;;;;;;;11.75;100.00;100335.47;5051833;28;20039;-76
2022/05/03 05:02:56;;;;;;;19.25;12.02;;;;;;;11.71;100.00;100338.81;5049480;28;20082;-82
2022/05/03 05:05:22;;;;;;;10.18;6.57;;;;;;;11.81;100.00;100362.44;5050338;28;20055;-76
2022/05/03 05:07:47;;;;;;;14.10;8.48;;;;;;;11.72;100.00;100341.44;5051756;28;20033;-77
2022/05/03 05:10:26;;;;;;;18.80;8.73;;;;;;;11.88;100.00;100362.63;5051395;28;20033;-78
2022/05/03 05:12:53;;;;;;;7.20;4.38;;;;;;;11.51;100.00;100310.63;5041052;28;20049;-77
2022/05/03 05:15:19;;;;;;;11.20;4.32;;;;;;;11.79;100.00;100347.69;5032727;28;20021;-77
2022/05/03 05:17:45;;;;;;;12.45;5.22;;;;;;;11.80;100.00;100367.53;5037746;28;20461;-77
2022/05/03 05:20:10;;;;;;;44.50;9.25;;;;;;;11.69;100.00;100359.47;5051320;28;20055;-77
2022/05/03 05:22:36;;;;;;;26.23;6.78;;;;;;;11.90;100.00;100374.75;5050857;28;20029;-76
2022/05/03 05:25:02;;;;;;;26.08;5.63;;;;;;;11.72;99.98;100349.19;5050653;28;20032;-77
2022/05/03 05:27:27;;;;;;;20.75;5.70;;;;;;;11.89;99.25;100374.72;5050406;28;20074;-78
2022/05/03 05:29:52;;;;;;;20.48;7.30;;;;;;;11.79;100.00;100369.25;5051010;28;20411;-77
2022/05/03 05:32:18;;;;;;;16.10;6.95;;;;;;;11.71;100.00;100347.44;5050737;28;20415;-77
2022/05/03 05:34:45;;;;;;;11.52;5.13;;;;;;;11.63;99.87;100354.09;5051275;28;20021;-75
2022/05/03 05:37:10;;;;;;;12.10;4.43;;;;;;;11.57;99.89;100347.03;5050699;28;20025;-77
2022/05/03 05:39:36;;;;;;;17.25;6.03;;;;;;;11.62;99.86;100363.56;5051121;28;20039;-77
2022/05/03 05:42:01;;;;;;;9.45;5.20;;;;;;;11.58;100.00;100355.69;5050897;28;20033;-77
2022/05/03 05:44:30;;;;;;;10.68;4.18;;;;;;;11.71;99.11;100365.53;5050887;28;20025;-75
2022/05/03 05:46:56;;;;;;;12.50;3.92;;;;;;;11.77;99.16;100376.06;5047684;28;20064;-77
2022/05/03 05:49:22;;;;;;;10.18;4.68;;;;;;;11.60;98.14;100341.06;5045263;28;20053;-77
2022/05/03 05:51:47;;;;;;;16.35;4.85;;;;;;;11.67;99.34;100358.53;5041335;28;20548;-81
2022/05/03 05:54:13;;;;;;;10.73;4.80;;;;;;;11.89;99.69;100388.53;5031239;28;20032;-77
2022/05/03 05:56:42;;;;;;;23.08;5.07;;;;;;;12.03;99.72;100386.38;5044746;28;20033;-77
2022/05/03 05:59:08;;;;;;;12.43;4.70;;;;;;;12.07;98.00;100395.97;5030709;28;20029;-78
2022/05/03 06:01:41;;;;;;;19.23;5.15;;;;;;;12.18;97.83;100395.44;5042193;28;20033;-77
2022/05/03 06:04:07;;;;;;;15.65;5.82;;;;;;;11.60;97.91;100300.59;5050322;28;20115;-78
2022/05/03 06:06:35;;;;;;;20.27;6.43;;;;;;;11.91;97.77;100352.34;5049734;28;20112;-77
2022/05/03 06:09:04;;;;;;;18.42;5.30;;;;;;;12.23;97.63;100393.84;5050541;28;20034;-78
2022/05/03 06:11:30;;;;;;;23.60;5.93;;;;;;;12.10;96.61;100396.06;5048773;28;20079;-77
2022/05/03 06:13:55;;;;;;;13.93;5.07;;;;;;;12.18;96.66;100403.19;5050747;28;20622;-78
2022/05/03 06:16:21;;;;;;;9.65;4.35;;;;;;;12.17;95.98;100393.66;5050392;28;20395;-78
2022/05/03 06:18:46;;;;;;;15.98;4.75;;;;;;;12.15;95.65;100391.03;5050146;28;20406;-77
2022/05/03 06:21:12;;;;;;;11.18;4.30;;;;;;;12.14;96.11;100381.53;5031848;28;20083;-78
2022/05/03 06:23:38;;;;;;;12.15;3.60;;;;;;;12.23;96.15;100392.13;5049838;28;20462;-78
2022/05/03 06:26:09;;;;;;;9.13;3.97;;;;;;;12.25;96.45;100399.94;5049639;28;20491;-76
2022/05/03 06:28:35;;;;;;;9.02;4.45;;;;;;;12.28;97.42;100397.44;5050222;28;20064;-77
2022/05/03 06:31:01;;;;;;;7.72;3.50;;;;;;;11.92;97.98;100346.34;5049779;28;20063;-79
2022/05/03 06:33:26;;;;;;;9.13;4.18;;;;;;;12.19;100.00;100392.00;5050181;28;20033;-80
2022/05/03 06:35:51;;;;;;;8.18;4.15;;;;;;;12.03;99.56;100382.91;5049792;28;20060;-78
2022/05/03 06:38:17;;;;;;;7.38;3.63;;;;;;;11.76;100.00;100376.03;5049932;28;20028;-79
2022/05/03 06:40:42;;;;;;;10.45;3.30;;;;;;;11.60;100.00;100398.84;5050318;28;20037;-79
2022/05/03 06:43:09;;;;;;;7.20;3.30;;;;;;;11.38;100.00;100375.72;5050131;28;20060;-79
2022/05/03 06:45:34;;;;;;;8.80;4.28;;;;;;;11.40;100.00;100369.78;5050044;28;20029;-83
2022/05/03 06:48:00;;;;;;;6.00;3.45;;;;;;;11.48;100.00;100380.34;5031809;28;20029;-81
2022/05/03 06:50:27;;;;;;;5.43;3.53;;;;;;;11.23;100.00;100395.06;5032264;28;20075;-81
2022/05/03 06:52:56;;;;;;;7.38;4.38;;;;;;;11.11;100.00;100402.41;5050203;28;20032;-81
2022/05/03 06:55:22;;;;;;;7.15;3.67;;;;;;;10.93;100.00;100411.28;5050115;28;20050;-81
2022/05/03 06:57:48;;;;;;;6.90;3.67;;;;;;;10.94;100.00;100388.91;5050532;28;20549;-81
2022/05/03 07:00:15;;;;;;;12.50;3.88;;;;;;;11.11;100.00;100408.44;5049918;28;20462;-82
2022/05/03 07:02:44;;;;;;;9.05;4.07;;;;;;;10.82;100.00;100340.31;5049470;28;20445;-81
2022/05/03 07:05:10;;;;;;;8.65;5.82;;;;;;;11.11;100.00;100377.44;5050203;28;20057;-81
2022/05/03 07:07:35;;;;;;;7.80;4.95;;;;;;;11.48;100.00;100403.63;5032028;28;20072;-81
2022/05/03 07:10:02;;;;;;;9.63;4.47;;;;;;;11.43;100.00;100402.59;5050045;28;20041;-80
2022/05/03 07:12:29;;;;;;;6.22;3.40;;;;;;;11.48;100.00;100393.28;5049436;28;20428;-78
2022/05/03 07:15:04;;;;;;;8.80;3.85;;;;;;;11.76;100.00;100415.72;5049443;28;20064;-80
2022/05/03 07:22:58;;;;;;;10.93;4.03;;;;;;;11.72;100.00;100367.31;5053353;28;20036;-77
2022/05/03 07:25:24;;;;;;;16.33;4.28;;;;;;;12.12;100.00;100417.72;5053046;28;20414;-80
2022/05/03 07:27:50;;;;;;;8.30;4.07;;;;;;;12.13;100.00;100395.28;5053073;28;20432;-80
2022/05/03 07:30:16;;;;;;;8.95;4.18;;;;;;;12.09;100.00;100386.56;5035538;28;20025;-81
2022/05/03 07:32:45;;;;;;;13.88;4.65;;;;;;;12.22;100.00;100405.91;5052363;28;20025;-80
2022/05/03 07:35:12;;;;;;;13.60;3.92;;;;;;;12.27;100.00;100435.41;5043947;28;20151;-80
2022/05/03 07:37:38;;;;;;;14.00;4.53;;;;;;;12.22;100.00;100436.09;5045582;28;20074;-79
2022/05/03 07:40:05;;;;;;;10.07;3.55;;;;;;;12.16;100.00;100418.66;5053055;28;20033;-80
2022/05/03 07:42:30;;;;;;;7.43;3.38;;;;;;;12.11;100.00;100428.00;5052869;28;20482;-80
2022/05/03 07:44:56;;;;;;;10.07;3.70;;;;;;;12.11;100.00;100422.81;5053221;28;20090;-81
2022/05/03 07:47:41;;;;;;;12.70;3.63;;;;;;;12.20;100.00;100438.63;5053029;28;20060;-81
2022/05/03 07:53:29;;;;;;;7.38;3.38;;;;;;;11.64;100.00;100397.25;5143975;22;20065;-80
2022/05/03 07:55:54;;;;;;;12.15;3.60;;;;;;;11.82;100.00;100446.06;5073104;28;20425;-80
2022/05/03 07:58:21;;;;;;;9.38;4.35;;;;;;;11.47;100.00;100402.72;5071566;28;20028;-80
2022/05/03 08:00:48;;;;;;;9.00;3.80;;;;;;;11.79;100.00;100445.97;5072957;28;20080;-82
2022/05/03 08:03:14;;;;;;;8.77;4.10;;;;;;;11.36;100.00;100413.56;5072496;28;20073;-82
2022/05/03 08:05:39;;;;;;;9.68;4.55;;;;;;;11.50;100.00;100420.03;5055005;28;20021;-83
2022/05/03 08:08:05;;;;;;;10.50;3.80;;;;;;;11.77;100.00;100452.81;5072777;28;20031;-84
2022/05/03 08:13:06;;;;;;;11.38;4.40;;;;;;;11.27;100.00;100377.97;5021755;22;20096;-82
2022/05/03 08:15:31;;;;;;;8.98;4.10;;;;;;;10.99;100.00;100315.94;5012997;28;20026;-83
2022/05/03 08:17:57;;;;;;;9.32;3.97;;;;;;;11.31;100.00;100379.81;4995030;28;20147;-82
2022/05/03 08:20:22;;;;;;;9.40;4.10;;;;;;;11.64;100.00;100411.03;4979820;28;20486;-82
2022/05/03 08:22:48;;;;;;;10.55;4.38;;;;;;;12.04;100.00;100462.31;4973636;28;20461;-82
2022/05/03 08:25:13;;;;;;;7.63;4.15;;;;;;;12.03;100.00;100461.41;4973846;28;20445;-86
2022/05/03 08:27:40;;;;;;;10.70;4.80;;;;;;;11.86;100.00;100416.00;4973458;28;20033;-82
2022/05/03 08:30:10;;;;;;;7.30;4.25;;;;;;;12.01;100.00;100431.16;4972393;28;20023;-83
2022/05/03 08:32:36;;;;;;;9.10;4.22;;;;;;;12.23;100.00;100456.84;4973681;28;20126;-82
2022/05/03 08:35:02;;;;;;;7.10;4.07;;;;;;;12.03;100.00;100425.19;4973783;28;20501;-83
2022/05/03 08:42:57;;;;;;;10.20;4.07;;;;;;;12.01;100.00;100438.91;4973354;28;20038;-83
2022/05/03 08:45:24;;;;;;;5.72;3.65;;;;;;;12.29;100.00;100466.50;4973598;28;20081;-83
2022/05/03 08:47:50;;;;;;;5.95;3.20;;;;;;;11.96;100.00;100412.88;4973461;28;20043;-84
2022/05/03 08:50:19;;;;;;;9.15;4.38;;;;;;;12.40;100.00;100461.63;4973497;28;20022;-84
2022/05/03 08:53:01;;;;;;;11.90;4.55;;;;;;;12.38;100.00;100453.81;4973318;28;20378;-84
2022/05/03 08:55:27;;;;;;;13.10;3.88;;;;;;;12.33;100.00;100454.53;4973500;28;20038;-85
2022/05/03 08:57:53;;;;;;;11.13;4.55;;;;;;;12.28;100.00;100439.72;4973144;28;20030;-85
2022/05/03 09:00:20;;;;;;;11.80;4.50;;;;;;;12.36;100.00;100459.78;4973398;28;20031;-86
2022/05/03 09:02:53;;;;;;;13.00;4.25;;;;;;;12.24;100.00;100444.78;4973006;28;20121;-86
2022/05/03 09:05:19;;;;;;;10.23;4.00;;;;;;;12.16;100.00;100446.25;4973191;28;20457;-87
2022/05/03 09:07:49;;;;;;;14.13;5.13;;;;;;;12.16;100.00;100438.50;4971141;28;20034;-86
2022/05/03 09:10:20;;;;;;;6.38;3.30;;;;;;;12.03;100.00;100451.06;4972141;28;20070;-85
2022/05/03 09:12:47;;;;;;;10.52;3.30;;;;;;;11.71;100.00;100492.25;4978537;28;20046;-90
2022/05/03 09:15:13;;;;;;;6.57;3.47;;;;;;;10.90;100.00;100439.59;4977827;28;20065;-89
2022/05/03 09:17:41;;;;;;;5.38;2.65;;;;;;;10.62;100.00;100455.81;4980799;28;20059;-87
2022/05/03 09:26:08;;;;;;;5.78;2.50;;;;;;;10.97;100.00;100476.84;4972321;28;20110;-85
2022/05/03 09:28:33;;;;;;;7.15;2.80;;;;;;;10.56;100.00;100397.09;4974605;28;20038;-88
2022/05/03 09:30:59;;;;;;;5.70;2.72;;;;;;;11.36;100.00;100493.69;4991934;28;20035;-87
2022/05/03 09:33:24;;;;;;;4.32;2.85;;;;;;;10.97;100.00;100400.22;4974458;28;20029;-89
2022/05/03 09:35:51;;;;;;;4.32;2.55;;;;;;;11.62;100.00;100490.25;4973939;28;20030;-88
2022/05/03 09:38:16;;;;;;;8.05;2.97;;;;;;;10.84;100.00;100328.31;4981907;28;20067;-87
2022/05/03 09:40:44;;;;;;;7.03;2.88;;;;;;;11.18;100.00;100373.38;4989975;28;20080;-86
2022/05/03 09:43:11;;;;;;;6.47;2.95;;;;;;;12.05;100.00;100490.81;4991164;28;20085;-87
2022/05/03 09:45:37;;;;;;;5.10;3.28;;;;;;;11.75;100.00;100420.81;4991290;28;20038;-87
2022/05/03 09:48:03;;;;;;;5.00;2.97;;;;;;;11.52;100.00;100358.94;4974123;28;20428;-86
2022/05/03 09:50:29;;;;;;;6.05;2.90;;;;;;;12.43;100.00;100493.66;4991679;28;20041;-87
2022/05/03 09:52:56;;;;;;;6.43;2.60;;;;;;;11.81;100.00;100374.47;4991614;28;20026;-87
2022/05/03 09:55:32;;;;;;;14.02;3.47;;;;;;;12.45;100.00;100507.53;4991296;28;20066;-85
2022/05/03 09:58:02;;;;;;;23.10;6.03;;;;;;;12.31;100.00;100493.28;4990480;28;20030;-86
2022/05/03 10:00:30;;;;;;;11.50;3.67;;;;;;;12.24;100.00;100499.16;4980241;28;20038;-87
2022/05/03 10:02:57;;;;;;;14.32;4.60;;;;;;;11.64;100.00;100407.59;4971705;28;20027;-86
2022/05/03 10:05:24;;;;;;;8.95;3.90;;;;;;;11.06;100.00;100362.63;4971553;28;20035;-87
2022/05/03 10:07:51;;;;;;;6.13;3.05;;;;;;;11.25;100.00;100369.28;4970509;28;20053;-89
2022/05/03 10:10:16;;;;;;;4.75;2.60;;;;;;;11.40;100.00;100405.06;4949541;28;20058;-88
2022/05/03 10:12:46;;;;;;;9.38;3.03;;;;;;;11.32;100.00;100394.50;4949077;28;20051;-86
2022/05/03 10:15:13;;;;;;;4.60;2.90;;;;;;;11.16;100.00;100370.75;4949869;29;20118;-86
2022/05/03 10:20:43;;;;;;;5.50;2.85;;;;;;;11.23;100.00;100369.22;4950095;29;20037;-90
2022/05/03 10:23:25;;;;;;;4.57;2.60;;;;;;;11.55;100.00;100402.09;4949824;29;20041;-87
2022/05/03 10:25:52;;;;;;;3.50;2.20;;;;;;;12.02;100.00;100476.91;4949923;29;20469;-88
2022/05/03 10:28:18;;;;;;;5.18;2.50;;;;;;;11.63;100.00;100418.75;4949794;29;20075;-87
2022/05/03 10:31:05;;;;;;;4.35;2.20;;;;;;;12.11;100.00;100474.56;4949739;29;20074;-87
2022/05/03 10:33:30;;;;;;;4.15;2.25;;;;;;;12.10;100.00;100480.56;4949623;29;20035;-82
2022/05/03 10:35:57;;;;;;;4.60;2.28;;;;;;;12.21;100.00;100479.22;4949668;29;20102;-83
2022/05/03 10:38:36;;;;;;;5.68;2.50;;;;;;;12.19;100.00;100482.59;4949541;29;20082;-82
2022/05/03 10:41:05;;;;;;;3.53;2.25;;;;;;;11.86;100.00;100458.25;4949476;29;20078;-83
2022/05/03 10:43:33;;;;;;;3.30;1.83;;;;;;;11.86;100.00;100484.13;4948571;29;20039;-82
2022/05/03 10:46:11;;;;;;;6.57;2.25;;;;;;;11.39;100.00;100404.22;4933140;29;20047;-85
2022/05/03 10:48:41;;;;;;;5.45;2.13;;;;;;;11.91;100.00;100477.41;4979640;28;20050;-86
2022/05/03 10:51:09;;;;;;;2.88;1.88;;;;;;;11.30;100.00;100389.28;4970145;28;20133;-85
2022/05/03 10:53:36;;;;;;;5.35;1.80;;;;;;;11.44;100.00;100419.84;4985691;28;20041;-87
2022/05/03 10:56:09;;;;;;;2.85;1.90;;;;;;;11.94;100.00;100492.16;4975857;28;20220;-84
2022/05/03 10:58:40;;;;;;;3.03;1.70;;;;;;;11.27;100.00;100368.50;4993737;28;20037;-82
2022/05/03 11:01:11;;;;;;;3.42;2.00;;;;;;;11.70;100.00;100431.06;4994140;28;20034;-84
2022/05/03 11:03:49;;;;;;;4.18;2.00;;;;;;;12.06;100.00;100487.41;4974104;28;20507;-82
2022/05/03 11:06:18;;;;;;;2.58;2.05;;;;;;;12.02;100.00;100485.53;4988060;28;20057;-85
2022/05/03 11:11:43;;;;;;;3.22;1.75;;;;;;;11.72;100.00;100444.03;4993942;28;20046;-84
2022/05/03 11:14:21;;;;;;;5.07;2.75;;;;;;;11.74;100.00;100484.63;4993989;28;20122;-83
2022/05/03 11:16:51;;;;;;;3.20;1.88;;;;;;;11.73;100.00;100489.75;4993313;28;20484;-83
2022/05/03 11:19:18;;;;;;;3.80;2.38;;;;;;;11.57;100.00;100470.25;4941022;29;20466;-81
2022/05/03 11:21:45;;;;;;;3.42;2.25;;;;;;;11.37;100.00;100418.78;4938949;29;20055;-85
2022/05/03 11:24:19;;;;;;;3.83;2.22;;;;;;;11.77;100.00;100473.50;4945782;29;20131;-81
2022/05/03 11:26:45;;;;;;;3.72;2.30;;;;;;;11.82;100.00;100475.41;4946968;29;20131;-84
2022/05/03 11:29:13;;;;;;;3.53;1.83;;;;;;;11.87;100.00;100478.13;4950534;29;20032;-88
2022/05/03 11:31:49;;;;;;;5.15;2.25;;;;;;;11.73;100.00;100457.00;4951839;29;20570;-81
2022/05/03 11:34:15;;;;;;;5.40;2.20;;;;;;;11.81;100.00;100472.75;4951427;29;20130;-83
2022/05/03 11:36:44;;;;;;;3.53;2.63;;;;;;;11.55;100.00;100448.63;4951411;29;20035;-84
2022/05/03 11:39:10;;;;;;;2.42;1.90;;;;;;;10.90;100.00;100359.50;4951385;29;20039;-81
2022/05/03 11:41:37;;;;;;;2.70;2.00;;;;;;;11.56;100.00;100481.44;4951120;29;20134;-81
2022/05/03 11:44:04;;;;;;;4.53;2.72;;;;;;;11.21;100.00;100429.44;4952543;29;20055;-83
2022/05/03 11:46:29;;;;;;;5.97;2.10;;;;;;;11.30;100.00;100435.81;4952585;29;20047;-87
2022/05/03 11:48:59;;;;;;;5.93;3.42;;;;;;;11.45;100.00;100458.69;4947056;29;20421;-82
2022/05/03 11:57:27;;;;;;;5.72;4.20;;;;;;;11.36;100.00;100462.69;4970410;28;20061;-83
2022/05/03 11:59:55;;;;;;;6.93;4.68;;;;;;;11.29;100.00;100446.06;4954142;28;20038;-84
2022/05/03 12:02:23;;;;;;;3.28;2.30;;;;;;;11.23;100.00;100417.47;4954229;28;20047;-81
2022/05/03 12:05:02;;;;;;;6.00;3.10;;;;;;;11.22;100.00;100429.47;4949201;28;20039;-82
2022/05/03 12:07:28;;;;;;;7.90;5.70;;;;;;;11.41;100.00;100448.19;4934251;29;20032;-82
2022/05/03 12:09:53;;;;;;;9.07;6.97;;;;;;;11.37;100.00;100444.63;4950372;28;20043;-85